sensor_id;sensor_type;location;lat;lon;timestamp;pressure;altitude;pressure_sealevel;temperature
82780;BMP280;72511;45.120;20.720;2024-03-08T00:02:30;100653.72;;;5.64
82780;BMP280;72511;45.120;20.720;2024-03-08T00:12:32;100658.72;;;5.65
82780;BMP280;72511;45.120;20.720;2024-03-08T00:22:35;100643.28;;;5.55
82780;BMP280;72511;45.120;20.720;2024-03-08T00:32:37;100638.69;;;5.56
82780;BMP280;72511;45.120;20.720;2024-03-08T00:42:38;100632.16;;;5.53
82780;BMP280;72511;45.120;20.720;2024-03-08T00:52:42;100649.50;;;5.66
82780;BMP280;72511;45.120;20.720;2024-03-08T01:02:43;100623.31;;;5.49
82780;BMP280;72511;45.120;20.720;2024-03-08T01:12:44;100644.09;;;5.63
82780;BMP280;72511;45.120;20.720;2024-03-08T01:22:46;100641.03;;;5.61
82780;BMP280;72511;45.120;20.720;2024-03-08T01:32:47;100646.81;;;5.66
82780;BMP280;72511;45.120;20.720;2024-03-08T01:42:49;100647.19;;;5.65
82780;BMP280;72511;45.120;20.720;2024-03-08T01:52:51;100642.59;;;5.65
82780;BMP280;72511;45.120;20.720;2024-03-08T02:02:54;100642.56;;;5.62
82780;BMP280;72511;45.120;20.720;2024-03-08T02:12:55;100649.84;;;5.61
82780;BMP280;72511;45.120;20.720;2024-03-08T02:22:57;100654.78;;;5.56
82780;BMP280;72511;45.120;20.720;2024-03-08T02:32:58;100654.06;;;5.59
82780;BMP280;72511;45.120;20.720;2024-03-08T02:43:00;100640.16;;;5.46
82780;BMP280;72511;45.120;20.720;2024-03-08T02:53:01;100660.16;;;5.56
82780;BMP280;72511;45.120;20.720;2024-03-08T03:03:03;100646.28;;;5.43
82780;BMP280;72511;45.120;20.720;2024-03-08T03:13:04;100659.66;;;5.40
82780;BMP280;72511;45.120;20.720;2024-03-08T03:23:06;100663.88;;;5.37
82780;BMP280;72511;45.120;20.720;2024-03-08T03:33:09;100664.63;;;5.34
82780;BMP280;72511;45.120;20.720;2024-03-08T03:43:13;100669.63;;;5.36
82780;BMP280;72511;45.120;20.720;2024-03-08T03:53:15;100651.91;;;5.28
82780;BMP280;72511;45.120;20.720;2024-03-08T04:03:16;100663.47;;;5.35
82780;BMP280;72511;45.120;20.720;2024-03-08T04:13:18;100675.75;;;5.36
82780;BMP280;72511;45.120;20.720;2024-03-08T04:23:21;100685.34;;;5.37
82780;BMP280;72511;45.120;20.720;2024-03-08T04:33:22;100677.22;;;5.27
82780;BMP280;72511;45.120;20.720;2024-03-08T04:43:25;100683.34;;;5.27
82780;BMP280;72511;45.120;20.720;2024-03-08T04:53:27;100710.63;;;5.33
82780;BMP280;72511;45.120;20.720;2024-03-08T05:03:30;100707.13;;;5.29
82780;BMP280;72511;45.120;20.720;2024-03-08T05:13:31;100708.25;;;5.28
82780;BMP280;72511;45.120;20.720;2024-03-08T05:23:33;100720.94;;;5.31
82780;BMP280;72511;45.120;20.720;2024-03-08T05:33:35;100723.63;;;5.31
82780;BMP280;72511;45.120;20.720;2024-03-08T05:43:36;100731.31;;;5.32
82780;BMP280;72511;45.120;20.720;2024-03-08T05:53:38;100733.59;;;5.30
82780;BMP280;72511;45.120;20.720;2024-03-08T06:03:39;100749.75;;;5.37
82780;BMP280;72511;45.120;20.720;2024-03-08T06:13:46;100765.13;;;5.40
82780;BMP280;72511;45.120;20.720;2024-03-08T06:23:47;100750.16;;;5.36
82780;BMP280;72511;45.120;20.720;2024-03-08T06:33:49;100774.44;;;5.53
82780;BMP280;72511;45.120;20.720;2024-03-08T06:43:51;100793.69;;;5.62
82780;BMP280;72511;45.120;20.720;2024-03-08T06:53:58;100779.94;;;5.71
82780;BMP280;72511;45.120;20.720;2024-03-08T07:04:00;100790.41;;;5.86
82780;BMP280;72511;45.120;20.720;2024-03-08T07:14:06;100783.97;;;5.94
82780;BMP280;72511;45.120;20.720;2024-03-08T07:24:07;100779.47;;;6.09
82780;BMP280;72511;45.120;20.720;2024-03-08T07:34:17;100778.06;;;6.39
82780;BMP280;72511;45.120;20.720;2024-03-08T07:44:19;100781.59;;;6.57
82780;BMP280;72511;45.120;20.720;2024-03-08T07:54:20;100783.63;;;6.88
82780;BMP280;72511;45.120;20.720;2024-03-08T08:04:22;100798.28;;;7.08
82780;BMP280;72511;45.120;20.720;2024-03-08T08:14:25;100780.56;;;7.04
82780;BMP280;72511;45.120;20.720;2024-03-08T08:24:27;100785.59;;;7.23
82780;BMP280;72511;45.120;20.720;2024-03-08T08:34:29;100791.38;;;7.39
82780;BMP280;72511;45.120;20.720;2024-03-08T08:44:31;100799.84;;;7.48
82780;BMP280;72511;45.120;20.720;2024-03-08T08:54:36;100797.16;;;7.66
82780;BMP280;72511;45.120;20.720;2024-03-08T09:04:37;100784.84;;;7.65
82780;BMP280;72511;45.120;20.720;2024-03-08T09:14:41;100790.63;;;7.74
82780;BMP280;72511;45.120;20.720;2024-03-08T09:24:43;100795.25;;;7.77
82780;BMP280;72511;45.120;20.720;2024-03-08T09:34:44;100786.00;;;7.74
82780;BMP280;72511;45.120;20.720;2024-03-08T09:44:46;100775.56;;;7.87
82780;BMP280;72511;45.120;20.720;2024-03-08T09:54:48;100794.00;;;8.20
82780;BMP280;72511;45.120;20.720;2024-03-08T10:04:51;100805.44;;;8.45
82780;BMP280;72511;45.120;20.720;2024-03-08T10:15:00;100787.63;;;8.61
82780;BMP280;72511;45.120;20.720;2024-03-08T10:25:02;100803.09;;;9.19
82780;BMP280;72511;45.120;20.720;2024-03-08T10:35:07;100799.75;;;9.52
82780;BMP280;72511;45.120;20.720;2024-03-08T10:45:26;100777.25;;;9.99
82780;BMP280;72511;45.120;20.720;2024-03-08T10:55:33;100783.16;;;10.80
82780;BMP280;72511;45.120;20.720;2024-03-08T11:05:38;100770.16;;;11.21
82780;BMP280;72511;45.120;20.720;2024-03-08T11:15:42;100750.81;;;10.96
82780;BMP280;72511;45.120;20.720;2024-03-08T11:25:43;100757.69;;;11.24
82780;BMP280;72511;45.120;20.720;2024-03-08T11:35:47;100748.19;;;11.16
82780;BMP280;72511;45.120;20.720;2024-03-08T11:45:50;100747.53;;;11.74
82780;BMP280;72511;45.120;20.720;2024-03-08T11:55:54;100732.50;;;11.27
82780;BMP280;72511;45.120;20.720;2024-03-08T12:05:58;100725.09;;;11.31
82780;BMP280;72511;45.120;20.720;2024-03-08T12:16:05;100712.53;;;11.17
82780;BMP280;72511;45.120;20.720;2024-03-08T12:26:33;100702.66;;;11.69
82780;BMP280;72511;45.120;20.720;2024-03-08T12:36:34;100703.63;;;11.98
82780;BMP280;72511;45.120;20.720;2024-03-08T12:46:38;100708.03;;;11.53
82780;BMP280;72511;45.120;20.720;2024-03-08T12:56:45;100691.69;;;11.57
82780;BMP280;72511;45.120;20.720;2024-03-08T13:06:46;100670.09;;;11.53
82780;BMP280;72511;45.120;20.720;2024-03-08T13:16:50;100683.81;;;11.82
82780;BMP280;72511;45.120;20.720;2024-03-08T13:26:52;100685.00;;;11.81
82780;BMP280;72511;45.120;20.720;2024-03-08T13:36:54;100684.09;;;11.68
82780;BMP280;72511;45.120;20.720;2024-03-08T13:47:00;100666.59;;;11.72
82780;BMP280;72511;45.120;20.720;2024-03-08T13:57:05;100672.19;;;11.62
82780;BMP280;72511;45.120;20.720;2024-03-08T14:07:08;100671.84;;;11.40
82780;BMP280;72511;45.120;20.720;2024-03-08T14:17:09;100661.88;;;11.37
82780;BMP280;72511;45.120;20.720;2024-03-08T14:27:12;100659.09;;;11.21
82780;BMP280;72511;45.120;20.720;2024-03-08T14:37:13;100649.44;;;11.17
82780;BMP280;72511;45.120;20.720;2024-03-08T14:47:14;100654.16;;;11.16
82780;BMP280;72511;45.120;20.720;2024-03-08T14:57:16;100627.75;;;11.20
82780;BMP280;72511;45.120;20.720;2024-03-08T15:07:17;100622.69;;;11.22
82780;BMP280;72511;45.120;20.720;2024-03-08T15:17:19;100640.53;;;11.20
82780;BMP280;72511;45.120;20.720;2024-03-08T15:27:22;100635.94;;;10.94
82780;BMP280;72511;45.120;20.720;2024-03-08T15:37:24;100646.34;;;10.76
82780;BMP280;72511;45.120;20.720;2024-03-08T15:47:26;100644.47;;;10.46
82780;BMP280;72511;45.120;20.720;2024-03-08T15:57:28;100639.50;;;9.92
82780;BMP280;72511;45.120;20.720;2024-03-08T16:07:29;100637.00;;;9.74
82780;BMP280;72511;45.120;20.720;2024-03-08T16:17:31;100643.22;;;9.38
82780;BMP280;72511;45.120;20.720;2024-03-08T16:27:33;100643.94;;;9.01
82780;BMP280;72511;45.120;20.720;2024-03-08T16:37:35;100648.06;;;8.69
82780;BMP280;72511;45.120;20.720;2024-03-08T16:47:37;100637.94;;;8.29
82780;BMP280;72511;45.120;20.720;2024-03-08T16:57:38;100650.81;;;7.93
82780;BMP280;72511;45.120;20.720;2024-03-08T17:07:39;100659.03;;;7.58
82780;BMP280;72511;45.120;20.720;2024-03-08T17:17:41;100654.09;;;7.29
82780;BMP280;72511;45.120;20.720;2024-03-08T17:27:42;100647.56;;;6.80
82780;BMP280;72511;45.120;20.720;2024-03-08T17:37:46;100660.56;;;6.43
82780;BMP280;72511;45.120;20.720;2024-03-08T17:47:49;100662.06;;;6.34
82780;BMP280;72511;45.120;20.720;2024-03-08T17:57:52;100668.13;;;6.10
82780;BMP280;72511;45.120;20.720;2024-03-08T18:07:54;100681.06;;;5.87
82780;BMP280;72511;45.120;20.720;2024-03-08T18:17:59;100680.53;;;5.67
82780;BMP280;72511;45.120;20.720;2024-03-08T18:28:02;100675.00;;;5.39
82780;BMP280;72511;45.120;20.720;2024-03-08T18:38:07;100685.19;;;5.16
82780;BMP280;72511;45.120;20.720;2024-03-08T18:48:09;100677.78;;;5.03
82780;BMP280;72511;45.120;20.720;2024-03-08T18:58:12;100682.63;;;4.90
82780;BMP280;72511;45.120;20.720;2024-03-08T19:08:13;100683.22;;;4.73
82780;BMP280;72511;45.120;20.720;2024-03-08T19:18:15;100691.84;;;4.56
82780;BMP280;72511;45.120;20.720;2024-03-08T19:28:16;100699.81;;;4.49
82780;BMP280;72511;45.120;20.720;2024-03-08T19:38:19;100697.75;;;4.36
82780;BMP280;72511;45.120;20.720;2024-03-08T19:48:21;100694.66;;;4.04
82780;BMP280;72511;45.120;20.720;2024-03-08T19:58:22;100698.50;;;3.80
82780;BMP280;72511;45.120;20.720;2024-03-08T20:08:24;100700.22;;;3.66
82780;BMP280;72511;45.120;20.720;2024-03-08T20:18:29;100698.84;;;3.53
82780;BMP280;72511;45.120;20.720;2024-03-08T20:28:32;100710.28;;;3.50
82780;BMP280;72511;45.120;20.720;2024-03-08T20:38:34;100701.66;;;3.37
82780;BMP280;72511;45.120;20.720;2024-03-08T20:48:37;100699.66;;;3.31
82780;BMP280;72511;45.120;20.720;2024-03-08T20:58:41;100696.91;;;3.27
82780;BMP280;72511;45.120;20.720;2024-03-08T21:08:44;100692.03;;;3.33
82780;BMP280;72511;45.120;20.720;2024-03-08T21:18:46;100684.53;;;3.42
82780;BMP280;72511;45.120;20.720;2024-03-08T21:28:47;100675.28;;;3.36
82780;BMP280;72511;45.120;20.720;2024-03-08T21:38:49;100683.25;;;3.32
82780;BMP280;72511;45.120;20.720;2024-03-08T21:48:50;100681.41;;;3.36
82780;BMP280;72511;45.120;20.720;2024-03-08T21:58:51;100689.72;;;3.31
82780;BMP280;72511;45.120;20.720;2024-03-08T22:08:53;100672.53;;;3.10
82780;BMP280;72511;45.120;20.720;2024-03-08T22:18:55;100671.84;;;3.13
82780;BMP280;72511;45.120;20.720;2024-03-08T22:28:56;100654.09;;;3.05
82780;BMP280;72511;45.120;20.720;2024-03-08T22:38:57;100641.75;;;2.97
82780;BMP280;72511;45.120;20.720;2024-03-08T22:48:58;100643.50;;;3.08
82780;BMP280;72511;45.120;20.720;2024-03-08T22:59:00;100667.19;;;3.10
82780;BMP280;72511;45.120;20.720;2024-03-08T23:09:03;100669.59;;;2.96
82780;BMP280;72511;45.120;20.720;2024-03-08T23:19:04;100680.06;;;2.82
82780;BMP280;72511;45.120;20.720;2024-03-08T23:29:06;100677.97;;;2.72
82780;BMP280;72511;45.120;20.720;2024-03-08T23:39:07;100669.69;;;2.58
82780;BMP280;72511;45.120;20.720;2024-03-08T23:49:13;100641.19;;;2.27
82780;BMP280;72511;45.120;20.720;2024-03-08T23:59:18;100655.81;;;2.33
